Time;durP1;ratioP1;P1;durP2;ratioP2;P2;SDS_P1;SDS_P2;PMS_P1;PMS_P2;Temp;Humidity;BMP_temperature;BMP_pressure;BME280_temperature;BME280_humidity;BME280_pressure;Samples;Min_cycle;Max_cycle;Signal;HPM_P1;HPM_P2
2020/12/24 00:00:00;;;;;;;0.70;0.60;;;11.20;99.90;;;;;;5070615;28;20480;-77
2020/12/24 00:02:27;;;;;;;0.70;0.60;;;11.20;99.90;;;;;;5071181;28;20528;-78
2020/12/24 00:04:53;;;;;;;0.80;0.60;;;11.20;99.90;;;;;;5070345;28;20536;-79
2020/12/24 00:07:19;;;;;;;0.70;0.60;;;11.30;99.90;;;;;;5070593;28;20524;-77
2020/12/24 00:09:47;;;;;;;0.90;0.60;;;11.30;99.90;;;;;;5069714;28;20993;-78
2020/12/24 00:12:13;;;;;;;2.20;0.70;;;11.30;99.90;;;;;;5070707;28;20454;-78
2020/12/24 00:14:40;;;;;;;2.40;0.70;;;11.30;1.00;;;;;;5070042;28;20536;-78
2020/12/24 00:17:06;;;;;;;0.70;0.70;;;11.30;99.90;;;;;;5070608;28;20536;-78
2020/12/24 00:19:33;;;;;;;0.77;0.50;;;11.30;1.00;;;;;;5069889;28;20551;-76
2020/12/24 00:22:00;;;;;;;1.27;0.60;;;11.30;2.90;;;;;;5070871;28;20486;-78
2020/12/24 00:24:26;;;;;;;0.60;0.50;;;11.20;1.00;;;;;;5070634;28;20456;-77
2020/12/24 00:26:53;;;;;;;0.70;0.70;;;11.30;97.90;;;;;;5070047;28;20453;-76
2020/12/24 00:29:20;;;;;;;0.50;0.50;;;11.30;1.00;;;;;;5070120;28;20599;-78
2020/12/24 00:31:46;;;;;;;0.60;0.50;;;11.30;1.00;;;;;;5070326;28;20922;-78
2020/12/24 00:34:13;;;;;;;0.57;0.50;;;11.30;99.90;;;;;;5070287;28;20457;-78
2020/12/24 00:36:39;;;;;;;0.93;0.40;;;11.30;99.90;;;;;;5074065;28;20457;-76
2020/12/24 00:39:06;;;;;;;0.90;0.53;;;11.30;1.00;;;;;;5074014;28;20449;-78
2020/12/24 00:41:33;;;;;;;0.90;0.60;;;11.30;1.00;;;;;;5074157;28;20451;-75
2020/12/24 00:44:00;;;;;;;1.27;0.80;;;11.30;1.00;;;;;;5073984;28;20525;-76
2020/12/24 00:46:26;;;;;;;1.17;0.50;;;11.30;99.90;;;;;;5074007;28;20456;-77
2020/12/24 00:48:53;;;;;;;1.03;0.70;;;11.20;99.90;;;;;;5073052;28;20499;-78
2020/12/24 00:51:19;;;;;;;0.70;0.50;;;11.20;1.00;;;;;;5074073;28;20467;-76
2020/12/24 00:53:45;;;;;;;1.63;0.50;;;11.20;57.20;;;;;;5073729;28;20860;-77
2020/12/24 00:56:12;;;;;;;0.90;0.70;;;11.30;1.00;;;;;;5074102;28;20536;-77
2020/12/24 00:58:38;;;;;;;1.10;1.00;;;11.20;1.00;;;;;;5073026;28;20452;-77
2020/12/24 01:01:06;;;;;;;0.70;0.50;;;11.20;99.90;;;;;;5073711;28;20537;-76
2020/12/24 01:03:33;;;;;;;1.27;0.60;;;11.20;1.00;;;;;;5073617;28;20460;-75
2020/12/24 01:05:59;;;;;;;0.70;0.60;;;11.30;99.90;;;;;;5073978;28;20488;-76
2020/12/24 01:08:25;;;;;;;1.20;0.70;;;11.20;1.00;;;;;;5073654;28;20517;-78
2020/12/24 01:10:53;;;;;;;0.80;0.80;;;11.10;1.00;;;;;;5073289;28;20579;-77
2020/12/24 01:13:19;;;;;;;0.70;0.60;;;10.90;99.90;;;;;;5073794;28;20510;-78
2020/12/24 01:15:46;;;;;;;2.43;1.37;;;;;;;;;;5073076;28;20480;-80
2020/12/24 01:18:13;;;;;;;2.90;1.20;;;;;;;;;;5072917;28;20485;-80
2020/12/24 01:20:40;;;;;;;1.70;1.20;;;10.60;1.00;;;;;;5073327;28;20540;-80
2020/12/24 01:23:06;;;;;;;1.40;0.63;;;10.20;99.90;;;;;;5073488;28;20532;-79
2020/12/24 01:25:33;;;;;;;1.63;0.70;;;10.00;99.90;;;;;;5073298;28;20528;-75
2020/12/24 01:27:59;;;;;;;2.77;0.73;;;10.00;99.90;;;;;;5073140;28;20449;-79
2020/12/24 01:30:26;;;;;;;7.00;2.60;;;10.10;99.90;;;;;;5073025;28;20538;-79
2020/12/24 01:32:53;;;;;;;1.83;0.60;;;;;;;;;;5073130;28;20470;-79
2020/12/24 01:35:21;;;;;;;1.17;0.70;;;;;;;;;;5073315;28;20923;-79
2020/12/24 01:37:47;;;;;;;2.90;1.57;;;;;;;;;;5073224;28;20487;-79
2020/12/24 01:40:14;;;;;;;3.00;1.53;;;;;;;;;;5072782;28;20473;-79
2020/12/24 01:42:41;;;;;;;2.63;1.57;;;;;;;;;;5072556;28;20449;-78
2020/12/24 01:45:08;;;;;;;2.17;1.50;;;;;;;;;;5072804;28;20536;-79
2020/12/24 01:47:34;;;;;;;2.00;0.80;;;;;;;;;;5072020;28;20449;-77
2020/12/24 01:50:01;;;;;;;0.80;0.60;;;;;;;;;;5072535;28;20503;-77
2020/12/24 01:52:33;;;;;;;1.20;0.53;;;;;;;;;;5072745;28;20458;-80
2020/12/24 01:55:01;;;;;;;1.50;1.03;;;;;;;;;;5073041;28;20822;-76
2020/12/24 01:57:27;;;;;;;3.33;1.00;;;;;;;;;;5072926;28;20456;-77
2020/12/24 01:59:55;;;;;;;0.80;0.63;;;;;;;;;;5071855;28;20441;-77
2020/12/24 02:02:22;;;;;;;1.50;0.80;;;;;;;;;;5072491;28;21045;-77
2020/12/24 02:04:48;;;;;;;0.90;0.50;;;;;;;;;;5072519;28;20915;-78
2020/12/24 02:07:16;;;;;;;3.20;0.83;;;;;;;;;;5073269;28;20449;-78
2020/12/24 02:09:46;;;;;;;0.50;0.40;;;;;;;;;;5071728;28;20493;-78
2020/12/24 02:12:13;;;;;;;1.97;0.50;;;;;;;;;;5073877;28;20462;-78
2020/12/24 02:14:40;;;;;;;0.60;0.60;;;;;;;;;;5073407;28;20520;-78
2020/12/24 02:17:06;;;;;;;1.07;0.63;;;;;;;;;;5072363;28;20949;-78
2020/12/24 02:19:33;;;;;;;0.70;0.50;;;;;;;;;;5071376;28;20485;-77
2020/12/24 02:22:01;;;;;;;0.97;0.70;;;;;;;;;;5072286;28;20453;-76
2020/12/24 02:24:28;;;;;;;0.70;0.50;;;;;;;;;;5072231;28;20446;-78
2020/12/24 02:26:54;;;;;;;0.90;0.60;;;;;;;;;;5071844;28;20529;-77
2020/12/24 02:29:21;;;;;;;1.20;0.60;;;;;;;;;;5071656;28;20481;-78
2020/12/24 02:31:48;;;;;;;3.80;0.87;;;10.10;99.90;;;;;;5072063;28;20446;-78
2020/12/24 02:34:14;;;;;;;1.57;0.57;;;9.90;1.00;;;;;;5072166;28;20540;-78
2020/12/24 02:36:41;;;;;;;0.60;0.40;;;9.80;1.00;;;;;;5071645;28;20879;-77
2020/12/24 02:39:09;;;;;;;0.93;0.60;;;9.80;1.00;;;;;;5071625;28;20562;-78
2020/12/24 02:41:35;;;;;;;0.80;0.50;;;9.70;99.90;;;;;;5071518;28;20453;-79
2020/12/24 02:44:02;;;;;;;0.70;0.60;;;9.70;99.90;;;;;;5072046;28;20824;-79
2020/12/24 02:46:28;;;;;;;0.90;0.70;;;9.90;1.00;;;;;;5071576;28;20447;-77
2020/12/24 02:48:55;;;;;;;1.33;1.00;;;9.80;99.90;;;;;;5071180;28;20868;-77
2020/12/24 02:51:21;;;;;;;2.00;0.67;;;9.80;99.90;;;;;;5071649;28;20580;-77
2020/12/24 02:53:47;;;;;;;1.40;0.63;;;9.90;99.90;;;;;;5071389;28;20930;-76
2020/12/24 02:56:15;;;;;;;0.90;0.50;;;10.00;99.90;;;;;;5071495;28;20468;-77
2020/12/24 02:58:41;;;;;;;2.20;0.67;;;9.90;99.90;;;;;;5070598;28;20446;-77
2020/12/24 03:01:07;;;;;;;0.80;0.50;;;9.90;99.90;;;;;;5071733;28;20451;-79
2020/12/24 03:03:34;;;;;;;1.30;0.50;;;10.00;99.90;;;;;;5071014;28;20536;-76
2020/12/24 03:06:00;;;;;;;0.97;0.50;;;9.90;99.90;;;;;;5071300;28;20480;-76
2020/12/24 03:08:27;;;;;;;1.30;0.50;;;9.80;1.00;;;;;;5071001;28;20450;-77
2020/12/24 03:10:54;;;;;;;0.90;0.40;;;9.80;35.50;;;;;;5071014;28;20566;-76
2020/12/24 03:13:21;;;;;;;0.80;0.50;;;9.80;64.70;;;;;;5071475;28;20480;-77
2020/12/24 03:15:48;;;;;;;0.70;0.43;;;9.70;17.40;;;;;;5070963;28;20446;-77
2020/12/24 03:18:15;;;;;;;1.13;0.60;;;9.60;1.00;;;;;;5070838;28;20509;-77
2020/12/24 03:20:41;;;;;;;1.70;0.50;;;9.60;2.00;;;;;;5070622;28;20463;-78
2020/12/24 03:23:08;;;;;;;0.70;0.50;;;9.60;99.90;;;;;;5071133;28;20470;-78
2020/12/24 03:25:34;;;;;;;2.03;0.50;;;9.60;99.90;;;;;;5070945;28;20529;-78
2020/12/24 03:28:01;;;;;;;0.87;0.60;;;9.50;99.90;;;;;;5070809;28;20816;-78
2020/12/24 03:30:28;;;;;;;0.90;0.77;;;9.50;99.90;;;;;;5071108;28;20481;-77
2020/12/24 03:32:54;;;;;;;1.20;0.70;;;9.50;99.90;;;;;;5070832;28;20446;-77
2020/12/24 03:35:21;;;;;;;1.13;0.53;;;9.50;99.90;;;;;;5070941;28;20450;-76
2020/12/24 03:37:47;;;;;;;0.77;0.53;;;9.40;99.90;;;;;;5070191;28;20590;-77
2020/12/24 03:40:14;;;;;;;0.70;0.50;;;9.50;99.90;;;;;;5071046;28;20540;-77
2020/12/24 03:42:40;;;;;;;0.60;0.40;;;9.60;99.90;;;;;;5070618;28;20449;-77
2020/12/24 03:45:06;;;;;;;1.47;0.60;;;9.50;1.00;;;;;;5070832;28;20441;-77
2020/12/24 03:47:34;;;;;;;2.03;1.73;;;9.50;1.00;;;;;;5070717;28;20532;-76
2020/12/24 03:50:00;;;;;;;0.80;0.60;;;9.50;1.00;;;;;;5070136;28;21067;-77
2020/12/24 03:52:27;;;;;;;1.03;0.57;;;9.40;1.00;;;;;;5071084;28;20558;-78
2020/12/24 03:54:53;;;;;;;2.57;0.80;;;9.50;1.00;;;;;;5070448;28;20540;-76
2020/12/24 03:57:19;;;;;;;0.80;0.63;;;9.30;1.00;;;;;;5070903;28;20450;-77
2020/12/24 03:59:46;;;;;;;1.87;1.33;;;9.20;1.00;;;;;;5069960;28;20458;-78
2020/12/24 04:02:12;;;;;;;1.63;1.00;;;9.20;1.00;;;;;;5070756;28;20492;-77
2020/12/24 04:04:39;;;;;;;1.53;0.93;;;9.10;1.00;;;;;;5070212;28;20744;-78
2020/12/24 04:07:05;;;;;;;0.70;0.60;;;9.00;47.80;;;;;;5070836;28;20882;-77
2020/12/24 04:09:32;;;;;;;1.20;0.90;;;8.90;67.80;;;;;;5070866;28;20538;-77
2020/12/24 04:11:58;;;;;;;1.80;0.60;;;8.90;92.70;;;;;;5074776;28;20630;-77
2020/12/24 04:14:25;;;;;;;0.70;0.57;;;9.00;35.30;;;;;;5074694;28;20452;-76
2020/12/24 04:16:51;;;;;;;1.40;0.97;;;9.10;12.20;;;;;;5074496;28;20454;-77
2020/12/24 04:19:17;;;;;;;2.20;0.70;;;9.20;2.30;;;;;;5074457;28;20548;-77
2020/12/24 04:21:45;;;;;;;2.50;0.80;;;9.20;1.00;;;;;;5074142;28;20536;-77
2020/12/24 04:24:11;;;;;;;1.07;0.67;;;9.20;1.00;;;;;;5074679;28;20864;-76
2020/12/24 04:26:37;;;;;;;1.53;0.63;;;9.10;1.00;;;;;;5074366;28;20520;-77
2020/12/24 04:29:04;;;;;;;4.13;1.43;;;9.10;1.00;;;;;;5074107;28;20594;-76
2020/12/24 04:31:30;;;;;;;2.63;0.87;;;9.10;1.00;;;;;;5074249;28;20503;-77
2020/12/24 04:33:56;;;;;;;1.73;0.93;;;9.20;1.00;;;;;;5073820;28;20445;-77
2020/12/24 04:36:23;;;;;;;1.20;0.60;;;9.30;1.00;;;;;;5074107;28;20448;-76
2020/12/24 04:38:50;;;;;;;3.57;1.50;;;9.30;1.00;;;;;;5073459;28;20536;-77
2020/12/24 04:41:17;;;;;;;0.90;0.70;;;9.20;1.00;;;;;;5074583;28;20484;-77
2020/12/24 04:43:44;;;;;;;1.40;0.90;;;9.10;1.00;;;;;;5073904;28;20531;-77
2020/12/24 04:46:13;;;;;;;1.60;0.90;;;9.00;1.00;;;;;;5074035;28;20528;-77
2020/12/24 04:48:40;;;;;;;1.20;0.77;;;9.10;1.00;;;;;;5073179;28;20449;-75
2020/12/24 04:51:09;;;;;;;0.87;0.70;;;9.20;1.00;;;;;;5073828;28;21039;-77
2020/12/24 04:53:37;;;;;;;0.50;0.43;;;9.20;1.00;;;;;;5073476;28;20480;-77
2020/12/24 04:56:06;;;;;;;1.80;0.90;;;9.30;1.00;;;;;;5073993;28;20940;-76
2020/12/24 04:58:34;;;;;;;3.53;0.70;;;9.30;1.00;;;;;;5073212;28;20453;-75
2020/12/24 05:01:01;;;;;;;0.97;0.87;;;9.30;1.00;;;;;;5074133;28;20529;-76
2020/12/24 05:03:27;;;;;;;1.13;0.40;;;9.50;1.00;;;;;;5073970;28;20448;-77
2020/12/24 05:05:54;;;;;;;0.50;0.50;;;9.20;1.00;;;;;;5073500;28;20446;-77
2020/12/24 05:08:20;;;;;;;0.70;0.60;;;9.20;1.00;;;;;;5073454;28;20529;-77
2020/12/24 05:11:04;;;;;;;0.83;0.50;;;9.10;1.00;;;;;;5073461;28;20480;-77
2020/12/24 05:13:31;;;;;;;0.67;0.47;;;9.00;1.00;;;;;;5073696;28;20445;-77
2020/12/24 05:16:10;;;;;;;0.67;0.50;;;8.90;1.00;;;;;;5073289;28;20502;-77
2020/12/24 05:18:37;;;;;;;0.67;0.40;;;8.80;1.00;;;;;;5072992;28;20527;-77
2020/12/24 05:21:03;;;;;;;0.83;0.50;;;8.70;1.30;;;;;;5072183;28;20461;-76
2020/12/24 05:23:30;;;;;;;0.60;0.50;;;8.70;11.80;;;;;;5073292;28;20449;-77
2020/12/24 05:25:56;;;;;;;0.70;0.50;;;8.70;31.40;;;;;;5072864;28;20562;-76
2020/12/24 05:28:25;;;;;;;0.70;0.60;;;8.70;1.00;;;;;;5072770;28;20457;-76
2020/12/24 05:30:53;;;;;;;1.10;0.40;;;8.70;1.00;;;;;;5072946;28;21053;-76
2020/12/24 05:33:30;;;;;;;1.37;1.17;;;8.80;1.00;;;;;;5073325;28;20473;-75
2020/12/24 05:36:14;;;;;;;1.57;0.60;;;8.80;1.00;;;;;;5072860;28;20541;-76
2020/12/24 05:38:41;;;;;;;0.97;0.70;;;8.70;1.00;;;;;;5072342;28;20445;-76
2020/12/24 05:41:26;;;;;;;0.83;0.60;;;8.70;1.00;;;;;;5073446;28;20449;-76
2020/12/24 05:43:56;;;;;;;1.23;0.50;;;8.70;1.00;;;;;;5072722;28;20490;-75
2020/12/24 05:46:23;;;;;;;0.67;0.67;;;8.60;60.70;;;;;;5072985;28;20788;-75
2020/12/24 05:48:49;;;;;;;0.93;0.70;;;8.60;25.10;;;;;;5072149;28;20934;-76
2020/12/24 05:51:18;;;;;;;1.70;0.50;;;8.50;22.30;;;;;;5073058;28;20500;-76
2020/12/24 05:53:45;;;;;;;2.60;0.60;;;8.40;54.90;;;;;;5078916;28;20452;-76
2020/12/24 05:56:20;;;;;;;1.70;0.60;;;8.40;1.00;;;;;;5093097;28;21054;-76
2020/12/24 05:58:47;;;;;;;2.03;0.60;;;8.30;56.80;;;;;;5092388;28;20568;-76
2020/12/24 06:01:16;;;;;;;1.43;0.70;;;8.30;23.80;;;;;;5078000;28;20453;-76
2020/12/24 06:04:02;;;;;;;1.20;0.53;;;8.20;35.90;;;;;;5072455;28;20457;-76
2020/12/24 06:06:45;;;;;;;0.87;0.50;;;8.20;66.50;;;;;;5073064;28;20813;-77
2020/12/24 06:09:19;;;;;;;0.80;0.60;;;8.20;92.20;;;;;;5072396;28;20541;-78
2020/12/24 06:11:50;;;;;;;0.70;0.60;;;8.20;99.90;;;;;;5072349;28;20453;-78
2020/12/24 06:14:38;;;;;;;0.80;0.53;;;8.20;77.70;;;;;;5072528;28;20962;-78
2020/12/24 06:17:07;;;;;;;1.90;0.70;;;8.20;53.20;;;;;;5068164;28;20453;-77
2020/12/24 06:19:38;;;;;;;1.03;0.70;;;8.40;15.20;;;;;;5071405;28;20495;-78
2020/12/24 06:22:06;;;;;;;1.83;0.70;;;8.60;1.00;;;;;;5072372;28;20460;-76
2020/12/24 06:24:34;;;;;;;0.93;0.67;;;8.50;1.00;;;;;;5072145;28;20479;-76
2020/12/24 06:27:06;;;;;;;0.60;0.50;;;8.50;1.00;;;;;;5072140;28;20958;-76
2020/12/24 06:29:37;;;;;;;2.60;0.60;;;8.60;1.00;;;;;;5071609;28;20458;-73
2020/12/24 06:32:09;;;;;;;1.33;0.70;;;8.40;1.00;;;;;;5071967;28;20528;-75
2020/12/24 06:34:40;;;;;;;1.23;0.80;;;8.50;1.00;;;;;;5071814;28;20473;-75
2020/12/24 06:37:15;;;;;;;2.27;0.70;;;8.50;1.00;;;;;;5072103;28;20852;-75
2020/12/24 06:39:44;;;;;;;1.43;0.70;;;8.70;1.00;;;;;;5071339;28;21132;-76
2020/12/24 06:42:39;;;;;;;2.03;0.60;;;8.70;1.00;;;;;;5071906;28;20567;-76
2020/12/24 06:45:08;;;;;;;4.60;2.40;;;8.80;1.00;;;;;;5071698;28;20528;-76
2020/12/24 06:47:36;;;;;;;2.97;1.70;;;8.50;1.00;;;;;;5071028;28;20991;-76
2020/12/24 06:50:33;;;;;;;1.43;0.80;;;8.40;1.00;;;;;;5071789;28;20507;-75
2020/12/24 06:53:18;;;;;;;1.67;0.80;;;8.20;1.00;;;;;;5071727;28;20481;-76
2020/12/24 06:55:45;;;;;;;2.80;0.80;;;8.30;47.20;;;;;;5071290;28;20450;-77
2020/12/24 06:58:38;;;;;;;5.23;2.70;;;8.50;1.00;;;;;;5071153;28;20528;-76
2020/12/24 07:01:04;;;;;;;2.03;0.77;;;8.50;1.00;;;;;;5071807;28;20522;-76
2020/12/24 07:03:36;;;;;;;1.77;0.70;;;8.40;1.00;;;;;;5058223;28;20537;-77
2020/12/24 07:06:02;;;;;;;1.80;0.90;;;8.50;1.00;;;;;;5072701;28;20964;-77
2020/12/24 07:08:46;;;;;;;1.77;1.40;;;8.60;1.00;;;;;;5071436;28;20449;-77
2020/12/24 07:11:33;;;;;;;1.30;1.00;;;8.90;1.00;;;;;;5074272;28;20489;-78
2020/12/24 07:13:59;;;;;;;2.13;0.90;;;8.60;1.00;;;;;;5071351;28;20956;-77
2020/12/24 07:16:47;;;;;;;1.93;0.90;;;8.40;1.00;;;;;;5071053;28;20446;-77
2020/12/24 07:19:16;;;;;;;2.20;1.50;;;8.40;1.00;;;;;;5070967;28;20499;-77
2020/12/24 07:21:46;;;;;;;2.93;1.07;;;8.50;1.00;;;;;;5070681;28;20469;-78
2020/12/24 07:24:15;;;;;;;2.87;0.97;;;8.60;1.00;;;;;;5071298;28;20464;-77
2020/12/24 07:26:43;;;;;;;2.00;1.20;;;8.60;1.00;;;;;;5070677;28;20453;-78
2020/12/24 07:29:12;;;;;;;6.17;1.00;;;8.60;99.90;;;;;;5070881;28;20884;-78
2020/12/24 07:31:39;;;;;;;3.00;1.07;;;8.60;99.90;;;;;;5070696;28;20539;-76
2020/12/24 07:34:06;;;;;;;1.50;0.60;;;8.70;99.90;;;;;;5071197;28;20454;-78
2020/12/24 07:36:33;;;;;;;2.40;1.10;;;8.80;99.90;;;;;;5070956;28;20460;-77
2020/12/24 07:39:00;;;;;;;2.03;0.97;;;8.80;99.90;;;;;;5070503;28;20535;-75
2020/12/24 07:41:26;;;;;;;4.03;0.97;;;8.80;1.00;;;;;;5070859;28;20985;-78
2020/12/24 07:43:53;;;;;;;7.70;1.77;;;8.80;1.00;;;;;;5070228;28;20795;-75
2020/12/24 07:46:22;;;;;;;1.43;0.90;;;9.00;1.00;;;;;;5070633;28;20548;-75
2020/12/24 07:48:49;;;;;;;5.50;0.90;;;9.00;1.00;;;;;;5070421;28;20449;-77
2020/12/24 07:51:15;;;;;;;0.93;0.63;;;8.90;99.90;;;;;;5070962;28;20816;-75
2020/12/24 07:53:43;;;;;;;3.33;0.97;;;8.80;61.60;;;;;;5070331;28;20455;-76
2020/12/24 07:56:09;;;;;;;3.57;0.83;;;8.80;1.00;;;;;;5070715;28;20457;-75
2020/12/24 07:58:36;;;;;;;2.10;0.70;;;8.80;99.90;;;;;;5070246;28;20477;-76
2020/12/24 08:01:04;;;;;;;1.50;0.77;;;8.90;99.90;;;;;;5070738;28;20855;-76
2020/12/24 08:03:31;;;;;;;3.40;1.80;;;8.90;99.90;;;;;;5070803;28;20456;-75
2020/12/24 08:06:03;;;;;;;1.53;1.07;;;8.90;1.00;;;;;;5070720;28;20461;-75
2020/12/24 08:08:35;;;;;;;2.60;1.33;;;8.90;99.90;;;;;;5070365;28;20481;-75
2020/12/24 08:11:06;;;;;;;4.40;1.20;;;8.90;99.90;;;;;;5070506;28;20546;-77
2020/12/24 08:13:32;;;;;;;2.80;0.90;;;9.00;99.90;;;;;;5070641;28;20542;-77
2020/12/24 08:15:59;;;;;;;6.37;1.20;;;9.00;1.00;;;;;;5070395;28;20536;-73
2020/12/24 08:18:33;;;;;;;4.20;1.03;;;9.00;1.00;;;;;;5069965;28;20481;-77
2020/12/24 08:21:04;;;;;;;3.23;1.00;;;9.10;99.90;;;;;;5070437;28;20591;-73
2020/12/24 08:23:49;;;;;;;1.93;1.27;;;9.00;99.90;;;;;;5081636;28;20448;-78
2020/12/24 08:26:18;;;;;;;1.10;0.70;;;9.10;99.90;;;;;;5090916;28;20519;-77
2020/12/24 08:28:51;;;;;;;2.37;1.53;;;9.10;3.90;;;;;;5089802;28;20967;-77
2020/12/24 08:31:18;;;;;;;3.03;1.07;;;9.00;1.00;;;;;;5090604;28;20512;-76
2020/12/24 08:33:49;;;;;;;2.50;0.83;;;9.00;1.00;;;;;;5090382;28;20491;-76
2020/12/24 08:36:19;;;;;;;8.10;1.70;;;9.00;8.20;;;;;;5090584;28;20952;-75
2020/12/24 08:38:46;;;;;;;1.33;0.80;;;9.00;1.00;;;;;;5089792;28;20488;-75
2020/12/24 08:41:23;;;;;;;1.13;0.63;;;9.00;1.00;;;;;;5090539;28;20544;-75
2020/12/24 08:43:54;;;;;;;1.90;0.70;;;8.90;76.40;;;;;;5090103;28;20473;-75
2020/12/24 08:46:22;;;;;;;2.23;0.70;;;8.90;99.90;;;;;;5090646;28;20850;-76
2020/12/24 08:48:48;;;;;;;1.93;0.80;;;8.80;99.90;;;;;;5089696;28;20440;-75
2020/12/24 08:51:16;;;;;;;0.80;0.80;;;8.80;1.00;;;;;;5090325;28;20610;-78
2020/12/24 08:53:43;;;;;;;2.67;0.77;;;8.80;1.00;;;;;;5089740;28;20540;-77
2020/12/24 08:56:14;;;;;;;2.80;0.67;;;8.70;18.90;;;;;;5091945;28;20528;-75
2020/12/24 08:58:48;;;;;;;2.00;0.63;;;8.80;99.90;;;;;;5093265;28;20543;-75
2020/12/24 09:01:15;;;;;;;1.70;0.80;;;8.70;99.90;;;;;;5078985;28;20474;-76
2020/12/24 09:03:43;;;;;;;1.70;0.90;;;;;;;;;;5073314;28;20788;-76
2020/12/24 09:06:10;;;;;;;2.77;0.80;;;;;;;;;;5073846;28;20452;-75
2020/12/24 09:08:37;;;;;;;4.80;0.90;;;;;;;;;;5073145;28;20785;-76
2020/12/24 09:11:04;;;;;;;1.77;0.40;;;;;;;;;;5073358;28;20488;-76
2020/12/24 09:13:30;;;;;;;3.70;0.77;;;;;;;;;;5073805;28;20558;-78
2020/12/24 09:15:58;;;;;;;1.13;0.60;;;;;;;;;;5073151;28;20453;-78
2020/12/24 09:18:25;;;;;;;1.90;0.60;;;;;;;;;;5072934;28;20477;-78
2020/12/24 09:20:51;;;;;;;1.07;0.60;;;8.70;99.90;;;;;;5073333;28;20551;-77
2020/12/24 09:23:18;;;;;;;2.40;0.70;;;;;;;;;;5073680;28;20529;-77
2020/12/24 09:25:45;;;;;;;1.90;0.80;;;;;;;;;;5072910;28;20502;-78
2020/12/24 09:28:22;;;;;;;0.87;0.77;;;8.80;99.90;;;;;;5073199;28;20532;-77
2020/12/24 09:30:49;;;;;;;2.77;0.77;;;8.90;1.00;;;;;;5073029;28;20571;-77
2020/12/24 09:33:17;;;;;;;1.77;0.67;;;8.90;1.00;;;;;;5074725;28;20930;-77
2020/12/24 09:35:43;;;;;;;2.03;0.50;;;8.90;1.00;;;;;;5072778;28;20534;-77
2020/12/24 09:38:10;;;;;;;1.47;0.70;;;8.90;1.00;;;;;;5072765;28;20450;-77
2020/12/24 09:40:38;;;;;;;0.80;0.60;;;8.90;1.00;;;;;;5072818;28;20989;-76
2020/12/24 09:43:05;;;;;;;2.30;0.80;;;8.90;1.00;;;;;;5073031;28;20458;-77
2020/12/24 09:45:31;;;;;;;2.07;0.70;;;8.90;41.20;;;;;;5073021;28;20456;-77
2020/12/24 09:47:58;;;;;;;2.83;0.70;;;9.10;1.00;;;;;;5072578;28;20441;-77
2020/12/24 09:50:25;;;;;;;2.00;1.10;;;9.00;1.00;;;;;;5072864;28;20481;-76
2020/12/24 09:52:52;;;;;;;0.90;0.70;;;9.00;99.90;;;;;;5072715;28;20831;-76
2020/12/24 09:55:18;;;;;;;0.67;0.50;;;9.00;1.00;;;;;;5073083;28;20448;-77
2020/12/24 09:57:44;;;;;;;1.20;1.10;;;9.00;99.90;;;;;;5072213;28;20545;-77
2020/12/24 10:00:12;;;;;;;2.77;0.77;;;9.00;99.90;;;;;;5072862;28;20520;-77
2020/12/24 10:02:39;;;;;;;0.90;0.70;;;9.00;99.90;;;;;;5072340;28;20528;-77
2020/12/24 10:05:06;;;;;;;1.80;0.80;;;9.00;99.90;;;;;;5072590;28;20533;-77
2020/12/24 10:07:34;;;;;;;0.70;0.50;;;9.10;1.00;;;;;;5071905;28;20456;-77
2020/12/24 10:10:00;;;;;;;0.93;0.67;;;9.10;45.60;;;;;;5072369;28;20567;-77
2020/12/24 10:12:28;;;;;;;2.27;0.60;;;9.10;99.90;;;;;;5072868;28;20441;-77
2020/12/24 10:14:55;;;;;;;0.70;0.50;;;9.20;1.00;;;;;;5071935;28;20441;-77
2020/12/24 10:17:22;;;;;;;2.77;0.67;;;9.20;1.00;;;;;;5072183;28;20452;-76
2020/12/24 10:19:51;;;;;;;3.40;1.13;;;9.10;99.90;;;;;;5092650;28;20476;-77
2020/12/24 10:22:18;;;;;;;2.97;1.00;;;9.30;99.90;;;;;;5093160;28;20837;-77
2020/12/24 10:24:45;;;;;;;2.70;0.70;;;9.30;99.90;;;;;;5092154;28;20532;-77
2020/12/24 10:27:13;;;;;;;2.20;0.60;;;9.30;1.00;;;;;;5092279;28;20559;-76
2020/12/24 10:29:39;;;;;;;2.57;0.80;;;9.30;1.00;;;;;;5092042;28;20456;-74
2020/12/24 10:32:05;;;;;;;1.43;0.60;;;9.40;1.00;;;;;;5092152;28;21075;-77
2020/12/24 10:34:32;;;;;;;1.53;0.67;;;9.50;99.90;;;;;;5092489;28;20447;-77
2020/12/24 10:37:00;;;;;;;4.77;2.40;;;9.50;99.90;;;;;;5092467;28;20880;-76
2020/12/24 10:39:27;;;;;;;1.97;1.67;;;9.50;1.00;;;;;;5092395;28;20925;-77
2020/12/24 10:41:54;;;;;;;0.70;0.60;;;9.50;99.90;;;;;;5092010;28;20598;-77
2020/12/24 10:44:20;;;;;;;2.30;0.80;;;9.60;1.00;;;;;;5092235;28;20532;-77
2020/12/24 10:46:47;;;;;;;10.37;1.03;;;9.70;99.90;;;;;;5091523;28;20984;-77
2020/12/24 10:49:13;;;;;;;1.87;0.63;;;9.70;1.00;;;;;;5091920;28;20532;-77
2020/12/24 10:51:40;;;;;;;2.20;0.70;;;9.60;99.90;;;;;;5091350;28;21091;-77
2020/12/24 10:54:06;;;;;;;1.20;0.50;;;9.50;99.90;;;;;;5092193;28;20531;-77
2020/12/24 10:56:33;;;;;;;0.50;0.40;;;9.50;1.00;;;;;;5093561;28;20459;-73
2020/12/24 10:59:00;;;;;;;1.47;0.80;;;9.40;1.00;;;;;;5091399;28;20453;-76
2020/12/24 11:01:27;;;;;;;1.00;0.50;;;9.40;99.90;;;;;;5074922;28;20453;-76
2020/12/24 11:03:53;;;;;;;1.27;0.50;;;9.40;1.00;;;;;;5071294;28;20460;-76
2020/12/24 11:06:21;;;;;;;1.33;0.50;;;9.40;99.90;;;;;;5071540;28;20806;-75
2020/12/24 11:08:48;;;;;;;0.60;0.50;;;9.30;99.90;;;;;;5070970;28;20528;-76
2020/12/24 11:11:15;;;;;;;2.03;0.93;;;9.30;1.00;;;;;;5071186;28;21015;-77
2020/12/24 11:13:42;;;;;;;1.23;0.60;;;9.30;1.00;;;;;;5070823;28;20566;-76
2020/12/24 11:16:10;;;;;;;1.37;0.77;;;9.40;99.90;;;;;;5071073;28;20456;-76
2020/12/24 11:18:38;;;;;;;1.30;0.60;;;9.40;1.00;;;;;;5070322;28;20481;-77
2020/12/24 11:21:05;;;;;;;1.13;0.80;;;9.30;1.00;;;;;;5070617;28;20465;-76
2020/12/24 11:23:31;;;;;;;1.17;1.00;;;9.30;99.90;;;;;;5071322;28;21005;-77
2020/12/24 11:25:58;;;;;;;2.10;0.60;;;9.20;99.90;;;;;;5070848;28;20470;-76
2020/12/24 11:28:24;;;;;;;1.70;0.60;;;9.30;99.90;;;;;;5070687;28;20520;-76
2020/12/24 11:30:50;;;;;;;1.43;1.00;;;9.30;34.80;;;;;;5070633;28;21064;-76
2020/12/24 11:33:18;;;;;;;2.93;2.10;;;9.20;99.90;;;;;;5071117;28;20529;-77
2020/12/24 11:35:45;;;;;;;1.43;0.80;;;9.20;99.90;;;;;;5070691;28;20446;-77
2020/12/24 11:38:12;;;;;;;1.50;0.80;;;9.30;1.00;;;;;;5070621;28;20616;-77
2020/12/24 11:40:38;;;;;;;11.57;7.03;;;9.30;1.00;;;;;;5070473;28;20860;-77
2020/12/24 11:43:05;;;;;;;26.97;13.63;;;9.30;1.00;;;;;;5070698;28;20477;-77
2020/12/24 11:45:32;;;;;;;10.63;5.20;;;9.30;1.00;;;;;;5070523;28;20598;-77
2020/12/24 11:47:58;;;;;;;3.73;2.67;;;9.40;1.00;;;;;;5070588;28;20468;-77
2020/12/24 11:50:28;;;;;;;3.00;1.67;;;9.40;99.90;;;;;;5070666;28;20481;-77
2020/12/24 11:52:58;;;;;;;4.60;2.80;;;9.50;99.90;;;;;;5070426;28;20528;-76
2020/12/24 11:55:24;;;;;;;3.67;1.90;;;9.50;99.90;;;;;;5070611;28;20536;-76
2020/12/24 11:57:50;;;;;;;0.60;0.50;;;9.50;99.90;;;;;;5070533;28;20477;-77
2020/12/24 12:00:17;;;;;;;2.40;0.93;;;9.50;99.90;;;;;;5070782;28;20533;-76
2020/12/24 12:02:44;;;;;;;1.47;0.60;;;9.50;99.90;;;;;;5070258;28;20449;-76
2020/12/24 12:05:10;;;;;;;1.10;0.67;;;9.50;99.90;;;;;;5057379;28;20465;-77
2020/12/24 12:07:38;;;;;;;1.10;0.60;;;9.60;99.90;;;;;;5069753;28;20446;-76
2020/12/24 12:10:04;;;;;;;0.60;0.50;;;9.60;99.90;;;;;;5070420;28;20457;-76
2020/12/24 12:12:30;;;;;;;1.23;0.90;;;9.50;99.90;;;;;;5070647;28;20528;-77
2020/12/24 12:14:57;;;;;;;0.90;0.50;;;9.50;99.90;;;;;;5070397;28;20532;-76
2020/12/24 12:17:23;;;;;;;0.87;0.50;;;9.60;99.90;;;;;;5070361;28;20507;-77
2020/12/24 12:19:50;;;;;;;0.97;0.50;;;9.50;99.90;;;;;;5070457;28;20556;-77
2020/12/24 12:22:16;;;;;;;4.73;1.00;;;9.50;99.90;;;;;;5070591;28;20485;-77
2020/12/24 12:24:44;;;;;;;1.43;0.70;;;9.60;99.90;;;;;;5074006;28;20485;-77
2020/12/24 12:27:10;;;;;;;1.87;0.60;;;9.60;99.90;;;;;;5070992;28;20760;-77
2020/12/24 12:29:38;;;;;;;1.07;0.80;;;9.60;99.90;;;;;;5070671;28;20862;-77
2020/12/24 12:32:04;;;;;;;0.83;0.70;;;9.60;99.90;;;;;;5073639;28;20853;-77
2020/12/24 12:34:30;;;;;;;0.60;0.50;;;9.60;99.90;;;;;;5074678;28;20526;-76
2020/12/24 12:36:57;;;;;;;2.10;0.57;;;9.60;99.90;;;;;;5073564;28;20921;-76
2020/12/24 12:39:23;;;;;;;1.27;0.60;;;9.70;99.90;;;;;;5074200;28;20528;-77
2020/12/24 12:41:50;;;;;;;1.83;0.90;;;9.80;1.00;;;;;;5074177;28;20532;-77
2020/12/24 12:44:17;;;;;;;0.90;0.80;;;9.70;1.00;;;;;;5074517;28;20524;-75
2020/12/24 12:46:43;;;;;;;1.63;0.80;;;9.60;99.90;;;;;;5073527;28;20498;-77
2020/12/24 12:49:10;;;;;;;1.27;0.50;;;9.70;99.90;;;;;;5073883;28;20532;-76
2020/12/24 12:51:37;;;;;;;1.10;0.50;;;9.60;99.90;;;;;;5073813;28;20503;-76
2020/12/24 12:54:03;;;;;;;1.00;0.50;;;9.60;99.90;;;;;;5073831;28;20451;-76
2020/12/24 12:56:30;;;;;;;0.70;0.40;;;9.60;99.90;;;;;;5074142;28;20445;-75
2020/12/24 12:58:58;;;;;;;1.17;0.67;;;9.50;99.90;;;;;;5073131;28;20531;-78
2020/12/24 13:01:24;;;;;;;1.30;0.73;;;9.50;99.90;;;;;;5073644;28;20925;-76
2020/12/24 13:03:51;;;;;;;0.63;0.47;;;9.60;1.00;;;;;;5073901;28;20544;-77
2020/12/24 13:06:18;;;;;;;1.20;0.60;;;9.70;99.90;;;;;;5073894;28;20536;-76
2020/12/24 13:08:46;;;;;;;2.27;0.70;;;9.70;99.90;;;;;;5072858;28;20530;-77
2020/12/24 13:11:12;;;;;;;0.70;0.50;;;9.70;99.90;;;;;;5073828;28;20493;-76
2020/12/24 13:13:39;;;;;;;0.90;0.50;;;9.70;99.90;;;;;;5073253;28;20482;-73